Time;durP1;ratioP1;P1;durP2;ratioP2;P2;SDS_P1;SDS_P2;PMS_P1;PMS_P2;Temp;Humidity;BMP_temperature;BMP_pressure;BME280_temperature;BME280_humidity;BME280_pressure;Samples;Min_cycle;Max_cycle;Signal;HPM_P1;HPM_P2
2024/03/02 12:23:12;;;;;;;3.42;1.73;;;;;;;21.51;51.17;98461.16;4786613;30;20109;-85
2024/03/02 12:25:41;;;;;;;1.98;1.27;;;;;;;21.86;50.27;98473.84;4787071;29;20066;-85
2024/03/02 12:28:08;;;;;;;2.78;1.60;;;;;;;22.12;48.63;98464.38;4787922;30;20062;-86
2024/03/02 12:30:35;;;;;;;2.08;1.60;;;;;;;22.35;48.44;98464.13;4787997;30;20060;-85
2024/03/02 12:33:16;;;;;;;2.03;1.65;;;;;;;22.55;46.18;98460.78;4787223;30;20055;-86
2024/03/02 12:35:43;;;;;;;3.50;1.70;;;;;;;22.84;47.75;98466.06;4786898;30;20063;-85
2024/03/02 12:38:10;;;;;;;3.85;1.63;;;;;;;23.03;47.31;98459.94;4788322;30;20066;-85
2024/03/02 12:40:43;;;;;;;2.35;1.73;;;;;;;23.26;44.56;98466.00;4786948;30;20066;-85
2024/03/02 12:43:10;;;;;;;;;;;;;;;23.46;49.06;98457.19;4788342;29;20055;-85
2024/03/02 12:45:37;;;;;;;2.45;1.45;;;;;;;23.72;46.04;98456.41;4787974;30;19957;-85
2024/03/02 12:48:05;;;;;;;1.75;1.40;;;;;;;23.82;44.53;98456.81;4787896;30;20059;-86
2024/03/02 12:50:33;;;;;;;1.48;1.38;;;;;;;23.90;44.83;98455.81;4786768;29;20066;-85
2024/03/02 12:53:36;;;;;;;1.80;1.50;;;;;;;23.97;43.40;98457.66;4786786;30;20066;-85
2024/03/02 12:56:04;;;;;;;2.03;1.38;;;;;;;24.21;44.69;98458.91;4787712;30;20047;-85
2024/03/02 12:58:41;;;;;;;1.88;1.60;;;;;;;24.38;42.11;98439.63;4787661;30;20063;-85
2024/03/02 13:01:09;;;;;;;3.00;1.60;;;;;;;24.66;44.49;98451.97;4787801;30;20060;-86
2024/03/02 13:03:38;;;;;;;2.25;1.60;;;;;;;24.92;42.22;98444.84;4786808;30;20065;-85
2024/03/02 13:06:09;;;;;;;2.15;1.38;;;;;;;25.21;41.78;98438.09;4786571;30;20128;-85
2024/03/02 13:08:36;;;;;;;1.20;1.10;;;;;;;25.56;43.54;98436.84;4787876;30;20122;-85
2024/03/02 13:11:06;;;;;;;2.38;1.25;;;;;;;25.93;42.23;98438.03;4786766;30;20078;-86
2024/03/02 13:13:33;;;;;;;2.22;1.20;;;;;;;26.29;41.76;98436.47;4787877;30;20060;-86
2024/03/02 13:16:00;;;;;;;1.45;1.00;;;;;;;26.55;40.09;98437.25;4786519;30;20112;-86
2024/03/02 13:18:44;;;;;;;2.08;1.00;;;;;;;26.65;37.71;98417.84;4787830;30;20515;-86
2024/03/02 13:21:16;;;;;;;1.10;0.95;;;;;;;26.78;37.29;98430.31;4787411;30;20058;-86
2024/03/02 13:23:42;;;;;;;1.45;1.08;;;;;;;26.87;38.56;98420.06;4787596;29;20209;-85
2024/03/02 13:26:10;;;;;;;4.03;1.02;;;;;;;26.86;38.17;98430.00;4787508;30;20059;-86
2024/03/02 13:28:47;;;;;;;0.77;0.77;;;;;;;26.77;36.40;98425.97;4787685;30;20145;-86
2024/03/02 13:31:13;;;;;;;1.38;0.65;;;;;;;26.76;37.68;98419.75;4787501;30;20421;-86
2024/03/02 13:33:40;;;;;;;0.98;0.77;;;;;;;26.70;37.82;98417.13;4787448;30;20063;-86
2024/03/02 13:36:20;;;;;;;1.00;0.90;;;;;;;26.61;36.46;98417.44;4787743;30;20121;-86
2024/03/02 13:38:47;;;;;;;1.05;0.80;;;;;;;26.65;37.80;98412.44;4787543;30;20132;-86
2024/03/02 13:41:20;;;;;;;1.35;0.88;;;;;;;26.61;36.54;98409.34;4789624;29;20462;-86
2024/03/02 13:43:47;;;;;;;1.38;0.80;;;;;;;26.65;37.76;98402.44;4791151;30;20099;-86
2024/03/02 13:46:23;;;;;;;0.88;0.88;;;;;;;26.66;35.97;98412.19;4790210;30;20108;-85
2024/03/02 13:48:51;;;;;;;0.82;0.77;;;;;;;26.79;37.99;98404.97;4790719;30;20143;-86
2024/03/02 13:51:17;;;;;;;1.67;0.80;;;;;;;26.90;37.57;98412.31;4790934;30;20166;-85
2024/03/02 13:54:03;;;;;;;1.13;0.90;;;;;;;27.00;37.12;98413.66;4790694;30;20063;-86
2024/03/02 13:56:31;;;;;;;1.30;1.08;;;;;;;27.27;37.57;98402.47;4790763;30;20062;-86
2024/03/02 13:59:20;;;;;;;1.25;1.00;;;;;;;27.35;35.68;98404.84;4790301;30;20145;-86
2024/03/02 14:01:47;;;;;;;2.67;0.75;;;;;;;27.41;35.56;98401.25;4789706;30;20535;-86
2024/03/02 14:04:14;;;;;;;1.23;0.80;;;;;;;27.39;35.67;98395.22;4775056;30;20101;-85
2024/03/02 14:06:53;;;;;;;0.98;0.90;;;;;;;27.32;33.75;98403.44;4789598;30;20059;-86
2024/03/02 14:09:20;;;;;;;1.13;0.82;;;;;;;27.31;35.13;98404.50;4790551;30;20066;-86
2024/03/02 14:11:51;;;;;;;1.60;0.60;;;;;;;27.22;34.22;98405.06;4774780;30;20063;-85
2024/03/02 14:14:18;;;;;;;2.47;0.93;;;;;;;27.13;35.13;98401.88;4790737;30;20225;-86
2024/03/02 14:16:45;;;;;;;1.65;0.90;;;;;;;27.04;34.96;98396.78;4789298;29;20105;-86
2024/03/02 14:19:13;;;;;;;1.17;0.90;;;;;;;26.95;34.25;98398.16;4789370;30;20142;-88
2024/03/02 14:21:41;;;;;;;0.65;0.65;;;;;;;26.85;34.26;98395.97;4790158;30;20059;-85
2024/03/02 14:24:07;;;;;;;1.45;0.80;;;;;;;26.73;34.42;98392.41;4789278;29;20110;-85
2024/03/02 14:26:44;;;;;;;1.15;0.60;;;;;;;26.56;33.91;98390.31;4790420;29;20063;-85
2024/03/02 14:29:11;;;;;;;1.83;0.90;;;;;;;26.55;35.39;98385.97;4790188;30;20197;-85
2024/03/02 14:31:38;;;;;;;1.33;0.70;;;;;;;26.53;35.05;98379.97;4790026;30;20084;-85
2024/03/02 14:34:24;;;;;;;0.80;0.80;;;;;;;26.53;35.09;98388.06;4790313;30;20087;-85
2024/03/02 14:36:50;;;;;;;0.70;0.68;;;;;;;26.75;35.93;98384.88;4790281;30;20055;-85
2024/03/02 14:39:19;;;;;;;0.70;0.70;;;;;;;26.98;36.09;98389.59;4790112;30;20063;-86
2024/03/02 14:41:56;;;;;;;1.45;0.85;;;;;;;27.28;35.12;98377.13;4789035;30;20134;-85
2024/03/02 14:44:23;;;;;;;0.95;0.70;;;;;;;27.60;35.25;98386.78;4790218;30;20146;-86
2024/03/02 14:46:50;;;;;;;0.70;0.70;;;;;;;27.79;34.16;98388.38;4789966;30;20146;-86
2024/03/02 14:49:25;;;;;;;1.38;0.90;;;;;;;27.89;32.46;98382.41;4788858;30;20454;-85
2024/03/02 14:51:52;;;;;;;0.93;0.57;;;;;;;27.97;33.58;98381.22;4788943;29;20055;-85
2024/03/02 14:54:47;;;;;;;0.80;0.80;;;;;;;27.85;33.06;98381.22;4790061;30;20432;-86
2024/03/02 14:57:14;;;;;;;1.00;0.90;;;;;;;27.79;33.61;98374.03;4789052;30;20062;-87
2024/03/02 14:59:40;;;;;;;0.95;0.80;;;;;;;27.60;32.88;98373.28;4789736;30;20146;-85
2024/03/02 15:02:37;;;;;;;0.70;0.68;;;;;;;27.28;32.26;98369.03;4788979;30;20057;-86
2024/03/02 15:05:05;;;;;;;1.15;0.63;;;;;;;27.11;32.43;98380.50;4788623;30;20057;-86
2024/03/02 15:07:38;;;;;;;0.95;0.85;;;;;;;26.79;31.82;98361.78;4789925;30;20139;-86
2024/03/02 15:10:06;;;;;;;0.70;0.70;;;;;;;26.53;32.67;98361.06;4788504;30;20104;-85
2024/03/02 15:12:32;;;;;;;1.80;0.90;;;;;;;26.22;32.49;98360.16;4788771;30;20079;-85
2024/03/02 15:15:22;;;;;;;1.08;0.60;;;;;;;25.78;32.90;98361.03;4788682;30;20067;-85
2024/03/02 15:17:48;;;;;;;0.93;0.70;;;;;;;25.50;33.05;98359.59;4788409;30;20091;-86
2024/03/02 15:20:15;;;;;;;1.27;1.17;;;;;;;25.11;33.07;98351.56;4788484;30;20113;-85
2024/03/02 15:22:42;;;;;;;3.13;1.20;;;;;;;24.68;32.90;98353.88;4789072;30;20089;-85
2024/03/02 15:25:36;;;;;;;1.40;1.20;;;;;;;24.05;33.53;98353.44;4789020;30;20061;-85
2024/03/02 15:28:04;;;;;;;2.80;1.70;;;;;;;23.61;33.63;98368.38;4787838;30;20109;-86
2024/03/02 15:30:32;;;;;;;2.15;1.70;;;;;;;23.03;34.16;98363.34;4788034;30;20134;-85
2024/03/02 15:32:58;;;;;;;3.55;1.83;;;;;;;22.53;34.58;98368.94;4788643;30;20069;-85
2024/03/02 15:35:32;;;;;;;1.90;1.70;;;;;;;21.98;35.05;98370.50;4789121;30;20081;-85
2024/03/02 15:37:59;;;;;;;2.83;1.90;;;;;;;21.61;35.70;98367.13;4788903;30;20491;-85
2024/03/02 15:40:47;;;;;;;2.25;2.00;;;;;;;21.10;36.49;98374.28;4779980;30;20056;-85
2024/03/02 15:43:13;;;;;;;2.72;1.92;;;;;;;20.82;36.94;98365.13;4788878;30;20058;-85
2024/03/02 15:45:57;;;;;;;4.20;2.20;;;;;;;20.43;37.48;98355.59;4788873;30;20803;-85
2024/03/02 15:48:24;;;;;;;;;;;;;;;20.25;38.49;98358.66;4789340;30;20146;-85
2024/03/02 15:50:52;;;;;;;3.40;2.20;;;;;;;20.09;38.46;98368.53;4788589;30;19931;-85
2024/03/02 15:53:20;;;;;;;2.50;2.08;;;;;;;19.86;38.91;98366.75;4787827;30;20065;-85
2024/03/02 15:55:46;;;;;;;3.53;2.47;;;;;;;19.68;39.35;98364.41;4787245;30;20055;-85
2024/03/02 15:58:13;;;;;;;3.90;2.75;;;;;;;19.50;39.72;98362.06;4788981;30;20095;-85
2024/03/02 16:01:09;;;;;;;5.75;3.22;;;;;;;19.24;39.53;98358.75;4788529;30;20139;-84
2024/03/02 16:03:36;;;;;;;5.97;3.17;;;;;;;19.13;39.97;98357.34;4787087;29;20545;-85
2024/03/02 16:06:03;;;;;;;4.88;3.20;;;;;;;18.96;40.38;98361.09;4788692;30;20069;-84
2024/03/02 16:08:36;;;;;;;3.47;3.03;;;;;;;18.73;40.46;98359.25;4787569;30;20138;-85
2024/03/02 16:11:03;;;;;;;3.55;2.85;;;;;;;18.61;41.00;98358.78;4788112;30;20130;-85
2024/03/02 16:13:32;;;;;;;4.03;3.20;;;;;;;18.45;41.29;98376.53;4788403;30;20077;-84
2024/03/02 16:15:58;;;;;;;5.25;3.38;;;;;;;18.33;41.27;98364.56;4788046;30;20148;-85
2024/03/02 16:18:25;;;;;;;4.38;3.10;;;;;;;18.21;41.66;98367.59;4788229;30;20067;-85
2024/03/02 16:20:54;;;;;;;4.05;3.13;;;;;;;18.09;41.80;98372.47;4788028;30;20051;-84
2024/03/02 16:23:21;;;;;;;4.88;3.53;;;;;;;17.98;42.08;98365.66;4786829;30;20112;-84
2024/03/02 16:25:48;;;;;;;5.80;3.75;;;;;;;17.88;42.14;98372.16;4787012;30;20056;-84
2024/03/02 16:28:14;;;;;;;5.20;3.35;;;;;;;17.77;42.32;98363.53;4786744;30;20059;-84
2024/03/02 16:30:42;;;;;;;5.03;3.47;;;;;;;17.67;42.50;98371.69;4787815;30;20103;-86
2024/03/02 16:33:08;;;;;;;4.32;3.17;;;;;;;17.57;42.70;98366.53;4787015;30;20063;-84
2024/03/02 16:35:35;;;;;;;4.63;3.65;;;;;;;17.49;43.02;98373.69;4787905;30;20063;-85
2024/03/02 16:38:01;;;;;;;4.90;3.08;;;;;;;17.38;43.05;98374.88;4786830;30;20124;-84
2024/03/02 16:40:38;;;;;;;4.82;3.40;;;;;;;17.24;42.93;98374.53;4787798;30;20515;-85
2024/03/02 16:43:05;;;;;;;3.85;3.35;;;;;;;17.17;43.29;98374.34;4788215;30;20442;-84
2024/03/02 16:45:49;;;;;;;5.82;3.42;;;;;;;17.02;43.37;98375.94;4788047;30;20401;-84
2024/03/02 16:48:16;;;;;;;4.07;3.35;;;;;;;16.97;43.60;98381.75;4786762;30;20055;-84
2024/03/02 16:50:46;;;;;;;4.80;3.22;;;;;;;16.86;43.87;98387.38;4786661;30;20066;-84
2024/03/02 16:53:15;;;;;;;4.25;3.15;;;;;;;16.79;44.18;98385.34;4786742;30;20146;-84
2024/03/02 16:58:59;;;;;;;4.18;3.28;;;;;;;16.62;44.44;98383.66;4787658;30;20086;-84
2024/03/02 17:01:27;;;;;;;5.30;3.35;;;;;;;16.52;44.56;98376.66;4786709;30;20469;-84
2024/03/02 17:04:01;;;;;;;6.03;3.50;;;;;;;16.40;44.67;98391.19;4786690;30;20055;-84
2024/03/02 17:06:28;;;;;;;3.80;3.20;;;;;;;16.34;45.01;98392.66;4786632;30;20190;-84
2024/03/02 17:08:56;;;;;;;3.97;3.13;;;;;;;16.27;45.19;98394.31;4786590;30;20456;-84
2024/03/02 17:11:22;;;;;;;4.55;3.47;;;;;;;16.19;45.22;98400.41;4787945;30;20398;-84
2024/03/02 17:13:52;;;;;;;4.57;2.97;;;;;;;16.12;45.32;98396.72;5464175;24;20142;-87
2024/03/02 17:16:19;;;;;;;4.82;3.03;;;;;;;16.05;45.51;98395.66;4830189;29;20137;-87
2024/03/02 17:18:58;;;;;;;3.90;3.10;;;;;;;15.95;45.22;98403.72;4837624;29;20384;-87
2024/03/02 17:21:25;;;;;;;3.33;2.80;;;;;;;15.93;45.63;98409.19;4831263;29;20063;-87
2024/03/02 17:23:54;;;;;;;4.75;3.08;;;;;;;15.86;45.82;98413.44;4837668;29;20284;-87
2024/03/02 17:26:20;;;;;;;5.28;2.88;;;;;;;15.80;45.75;98398.13;4834801;29;20085;-87
2024/03/02 17:28:50;;;;;;;4.38;3.15;;;;;;;15.72;45.92;98413.00;4841280;29;20110;-87
2024/03/02 17:31:17;;;;;;;4.82;3.10;;;;;;;15.68;46.03;98405.50;4825771;29;20460;-87
2024/03/02 17:33:57;;;;;;;4.32;3.17;;;;;;;15.57;46.01;98402.13;4841706;29;20062;-89
2024/03/02 17:36:23;;;;;;;4.47;2.97;;;;;;;15.58;46.31;98410.88;4825911;29;20141;-87
2024/03/02 17:38:51;;;;;;;3.08;2.45;;;;;;;15.53;46.49;98407.84;4825000;29;20144;-87
2024/03/02 17:41:18;;;;;;;4.15;2.55;;;;;;;15.48;46.40;98422.41;4841282;29;20064;-87
2024/03/02 17:44:04;;;;;;;3.85;2.95;;;;;;;15.39;46.18;98417.22;4841270;29;20050;-87
2024/03/02 17:46:31;;;;;;;3.28;2.65;;;;;;;15.39;46.57;98415.38;4841611;29;20049;-89
2024/03/02 17:48:59;;;;;;;2.97;2.60;;;;;;;15.34;46.53;98420.31;4841523;29;20054;-88
2024/03/02 17:51:26;;;;;;;4.05;3.10;;;;;;;15.31;46.58;98417.94;4817675;29;20057;-87
2024/03/02 17:54:04;;;;;;;3.97;2.90;;;;;;;15.22;46.26;98425.81;4841763;29;20507;-88
2024/03/02 17:56:31;;;;;;;7.20;3.00;;;;;;;15.23;46.64;98434.63;4841404;29;20058;-86
2024/03/02 17:59:00;;;;;;;4.00;2.70;;;;;;;15.16;46.42;98429.09;4817773;29;20058;-87
2024/03/02 18:01:27;;;;;;;2.97;2.60;;;;;;;15.14;46.79;98431.03;4841519;29;20544;-89
2024/03/02 18:04:10;;;;;;;3.92;2.72;;;;;;;15.06;46.49;98434.44;4825367;29;20141;-87
2024/03/02 18:06:36;;;;;;;3.08;2.22;;;;;;;15.07;46.90;98435.28;4825295;29;20065;-87
2024/03/02 18:09:10;;;;;;;4.45;3.00;;;;;;;15.00;46.83;98426.25;4841379;29;20062;-87
2024/03/02 18:11:37;;;;;;;3.95;2.83;;;;;;;14.97;47.14;98430.88;4841314;29;20058;-87
2024/03/02 18:14:04;;;;;;;3.63;2.70;;;;;;;14.92;47.05;98417.22;4824956;29;20054;-87
2024/03/02 18:16:37;;;;;;;3.15;2.35;;;;;;;14.85;46.84;98422.28;4825422;29;20564;-87
2024/03/02 18:19:04;;;;;;;3.60;2.30;;;;;;;14.85;47.10;98418.81;4825024;29;20443;-87
2024/03/02 18:21:35;;;;;;;3.17;2.25;;;;;;;14.83;47.28;98426.06;4961138;24;20502;-87
2024/03/02 18:24:02;;;;;;;3.72;2.33;;;;;;;14.80;47.25;98429.03;4822659;29;20065;-87
2024/03/02 18:26:29;;;;;;;2.72;2.05;;;;;;;14.77;47.19;98424.84;4840160;29;20053;-87
2024/03/02 18:29:03;;;;;;;2.72;2.03;;;;;;;14.72;47.04;98427.06;4818625;29;20106;-89
2024/03/02 18:31:29;;;;;;;2.75;2.17;;;;;;;14.70;47.21;98427.22;4814725;29;20050;-87
2024/03/02 18:34:34;;;;;;;4.57;2.10;;;;;;;14.62;47.01;98437.72;4837259;29;20462;-89
2024/03/02 18:37:05;;;;;;;3.30;2.20;;;;;;;14.65;47.41;98429.47;4789724;29;20065;-88
2024/03/02 18:39:32;;;;;;;3.17;2.35;;;;;;;14.62;47.33;98426.28;4820217;29;20076;-87
2024/03/02 18:41:59;;;;;;;3.88;2.15;;;;;;;14.59;47.33;98432.72;4820312;29;20111;-86
2024/03/02 18:44:25;;;;;;;3.20;2.35;;;;;;;14.57;47.55;98434.66;4833513;29;20070;-86
2024/03/02 18:46:52;;;;;;;2.83;2.08;;;;;;;14.54;47.44;98433.16;4832216;29;20061;-86
2024/03/02 18:49:19;;;;;;;3.65;2.35;;;;;;;14.51;47.64;98432.59;4840125;29;20070;-86
2024/03/02 18:51:46;;;;;;;3.45;2.60;;;;;;;14.48;47.61;98439.03;4809394;29;20050;-86
2024/03/02 18:54:13;;;;;;;3.08;2.17;;;;;;;14.43;47.68;98431.50;4834523;29;20066;-86
2024/03/02 18:56:39;;;;;;;3.80;2.30;;;;;;;14.40;47.53;98434.47;4815442;29;20086;-86
2024/03/02 18:59:06;;;;;;;4.45;2.40;;;;;;;14.38;47.71;98433.78;4833416;29;20058;-87
2024/03/02 19:01:33;;;;;;;6.18;2.47;;;;;;;14.36;47.62;98443.69;4843741;29;20062;-87
2024/03/02 19:04:00;;;;;;;3.83;2.45;;;;;;;14.32;47.84;98442.31;4827722;29;20130;-86
2024/03/02 19:06:26;;;;;;;3.70;2.65;;;;;;;14.30;47.96;98433.66;4835870;29;20631;-86
2024/03/02 19:08:53;;;;;;;4.35;2.78;;;;;;;14.26;47.97;98432.28;4835296;29;20072;-86
2024/03/02 19:11:20;;;;;;;4.00;3.00;;;;;;;14.23;47.93;98435.19;4842936;29;20062;-87
2024/03/02 19:13:47;;;;;;;2.70;2.30;;;;;;;14.22;48.01;98425.59;4821979;29;20054;-86
2024/03/02 19:16:14;;;;;;;6.93;2.80;;;;;;;14.19;48.13;98432.88;4809054;29;20054;-87
2024/03/02 19:18:42;;;;;;;4.20;2.65;;;;;;;14.16;48.27;98443.72;4832707;29;20078;-86
2024/03/02 19:21:10;;;;;;;4.32;3.28;;;;;;;14.15;48.21;98435.94;4831991;29;20146;-87
2024/03/02 19:23:36;;;;;;;4.97;2.97;;;;;;;14.11;48.27;98430.09;4816483;29;20062;-87
2024/03/02 19:26:17;;;;;;;4.45;2.90;;;;;;;14.09;48.33;98434.69;4833551;29;20078;-86
2024/03/02 19:28:46;;;;;;;4.45;3.10;;;;;;;14.07;48.28;98428.72;4819492;29;20588;-87
2024/03/02 19:31:16;;;;;;;3.47;2.55;;;;;;;14.03;48.11;98438.75;4835457;29;20061;-86
2024/03/02 19:33:42;;;;;;;3.88;2.90;;;;;;;14.03;48.33;98437.91;4819126;29;20061;-87
2024/03/02 19:36:09;;;;;;;5.15;3.05;;;;;;;14.02;48.37;98441.53;4819294;29;20473;-86
2024/03/02 19:38:36;;;;;;;3.35;2.65;;;;;;;13.99;48.49;98431.22;4838176;29;20052;-86
2024/03/02 19:41:04;;;;;;;5.13;3.05;;;;;;;13.97;48.45;98435.84;4815895;29;20070;-86
2024/03/02 19:43:31;;;;;;;3.33;2.78;;;;;;;13.97;48.41;98443.78;4832128;29;20061;-86
2024/03/02 19:45:58;;;;;;;3.72;2.72;;;;;;;13.92;48.29;98433.63;4832291;29;20521;-86
2024/03/02 19:48:25;;;;;;;3.05;2.65;;;;;;;13.91;48.54;98435.41;4823397;29;20062;-87
2024/03/02 19:50:52;;;;;;;4.40;3.15;;;;;;;13.90;48.41;98435.56;4829677;29;20104;-86
2024/03/02 19:53:18;;;;;;;7.22;2.83;;;;;;;13.87;48.26;98434.03;4810209;29;20054;-86
2024/03/02 19:55:46;;;;;;;3.78;2.63;;;;;;;13.85;48.58;98433.34;4829609;29;20499;-86
2024/03/02 19:58:13;;;;;;;3.45;2.50;;;;;;;13.83;48.26;98431.81;4819212;29;20069;-86
2024/03/02 20:00:40;;;;;;;3.08;2.58;;;;;;;13.80;48.64;98431.13;4834643;29;20053;-86
2024/03/02 20:03:09;;;;;;;4.40;2.80;;;;;;;13.79;48.60;98431.25;4827356;29;20054;-86
2024/03/02 20:05:36;;;;;;;3.83;2.78;;;;;;;13.75;48.58;98427.25;4828591;29;20093;-86
2024/03/02 20:08:04;;;;;;;4.68;2.70;;;;;;;13.73;48.76;98424.75;4828077;29;20058;-86
2024/03/02 20:10:31;;;;;;;4.70;3.10;;;;;;;13.70;48.78;98426.81;4831612;29;20092;-86
2024/03/02 20:12:57;;;;;;;3.65;2.88;;;;;;;13.68;48.83;98419.88;4815736;29;20058;-87
2024/03/02 20:15:24;;;;;;;5.68;3.30;;;;;;;13.66;48.93;98421.81;4815006;29;20062;-86
2024/03/02 20:17:50;;;;;;;4.30;3.10;;;;;;;13.65;48.97;98425.41;4808117;29;20077;-86
2024/03/02 20:20:17;;;;;;;5.28;3.25;;;;;;;13.65;48.82;98429.91;4831694;29;20114;-87
2024/03/02 20:22:45;;;;;;;6.07;3.20;;;;;;;13.63;49.03;98424.75;4808722;29;20054;-87
2024/03/02 20:25:13;;;;;;;4.57;3.10;;;;;;;13.63;48.86;98430.03;4836019;29;20149;-86
2024/03/02 20:27:43;;;;;;;5.70;3.67;;;;;;;13.63;49.09;98430.03;4834670;29;20064;-87
2024/03/02 20:30:11;;;;;;;4.70;3.47;;;;;;;13.61;49.07;98421.38;4811000;29;20062;-86
2024/03/02 20:32:38;;;;;;;5.13;3.65;;;;;;;13.62;49.09;98422.22;4824382;29;20461;-87
2024/03/02 20:35:06;;;;;;;5.63;3.95;;;;;;;13.61;49.18;98423.22;4824213;29;20062;-86
2024/03/02 20:37:32;;;;;;;4.45;3.75;;;;;;;13.61;49.22;98408.16;4839342;29;20135;-86
2024/03/02 20:40:00;;;;;;;7.10;3.90;;;;;;;13.59;49.21;98407.50;4829666;29;20100;-87
2024/03/02 20:42:26;;;;;;;6.05;4.25;;;;;;;13.59;49.34;98415.41;4816953;29;20138;-87
2024/03/02 20:44:53;;;;;;;7.97;5.20;;;;;;;13.59;49.33;98410.13;4836855;29;20058;-86
2024/03/02 20:47:22;;;;;;;6.43;4.55;;;;;;;13.58;49.24;98403.19;4815290;29;20068;-86
2024/03/02 20:49:50;;;;;;;5.78;4.25;;;;;;;13.56;49.41;98413.06;4812525;29;20059;-86
2024/03/02 20:52:19;;;;;;;6.72;4.38;;;;;;;13.55;49.36;98411.38;4822716;29;20058;-87
2024/03/02 20:54:46;;;;;;;6.03;3.85;;;;;;;13.53;49.26;98418.63;4835599;29;20114;-86
2024/03/02 20:57:13;;;;;;;6.53;3.90;;;;;;;13.51;49.45;98412.63;4818146;29;20149;-87
2024/03/02 20:59:39;;;;;;;5.82;3.75;;;;;;;13.49;49.29;98418.06;4814888;29;20429;-86
2024/03/02 21:02:06;;;;;;;4.53;3.58;;;;;;;13.45;49.38;98419.28;4814914;29;20075;-86
2024/03/02 21:04:33;;;;;;;4.43;3.60;;;;;;;13.43;49.40;98415.97;4833979;29;20171;-86
2024/03/02 21:07:00;;;;;;;4.47;3.30;;;;;;;13.38;49.59;98413.72;4812598;29;20488;-86
2024/03/02 21:09:27;;;;;;;4.22;3.50;;;;;;;13.32;49.58;98414.28;4822317;29;20477;-86
2024/03/02 21:11:53;;;;;;;5.57;3.67;;;;;;;13.23;49.56;98410.66;4828522;29;20141;-86
2024/03/02 21:14:20;;;;;;;5.63;3.45;;;;;;;13.13;49.61;98405.34;4817800;29;20058;-86
2024/03/02 21:16:50;;;;;;;11.23;3.70;;;;;;;13.02;49.86;98408.13;4818324;29;20145;-86
2024/03/02 21:19:16;;;;;;;6.38;3.67;;;;;;;12.94;50.14;98405.34;4825500;29;20090;-86
2024/03/02 21:21:44;;;;;;;4.65;3.45;;;;;;;12.85;50.15;98407.81;4818081;29;20593;-87
2024/03/02 21:24:10;;;;;;;4.38;3.58;;;;;;;12.80;50.39;98410.03;4818086;29;20061;-86
2024/03/02 21:26:41;;;;;;;6.68;4.10;;;;;;;12.74;50.37;98416.69;4834014;29;20058;-86
2024/03/02 21:29:10;;;;;;;8.40;4.70;;;;;;;12.73;50.47;98414.19;4816965;29;20062;-86
2024/03/02 21:31:37;;;;;;;6.65;4.28;;;;;;;12.70;50.66;98414.44;4824753;29;20058;-86
2024/03/02 21:34:04;;;;;;;8.27;4.68;;;;;;;12.67;50.74;98406.81;4817169;29;20170;-86
2024/03/02 21:36:31;;;;;;;5.97;4.28;;;;;;;12.66;50.82;98411.25;4815956;29;20066;-86
2024/03/02 21:38:58;;;;;;;6.95;4.63;;;;;;;12.65;50.83;98409.59;4836790;29;20089;-86
2024/03/02 21:41:28;;;;;;;7.50;4.82;;;;;;;12.64;50.94;98416.66;4824953;29;20093;-86
2024/03/02 21:43:55;;;;;;;10.30;4.82;;;;;;;12.61;51.16;98406.38;4817821;29;20058;-87
2024/03/02 21:46:22;;;;;;;5.65;4.40;;;;;;;12.59;50.98;98413.59;4825851;29;20062;-86
2024/03/02 21:48:51;;;;;;;7.65;5.35;;;;;;;12.57;50.89;98418.19;4826786;29;20058;-86
2024/03/02 21:51:19;;;;;;;7.63;4.88;;;;;;;12.56;51.34;98416.50;4817892;29;20517;-86
2024/03/02 21:53:45;;;;;;;5.45;4.50;;;;;;;12.54;51.04;98415.81;4834053;29;20498;-86
2024/03/02 21:56:13;;;;;;;6.82;4.80;;;;;;;12.52;51.19;98412.44;4817931;29;20582;-87
2024/03/02 21:58:39;;;;;;;6.20;4.65;;;;;;;12.50;51.28;98412.59;4815314;29;20059;-86
2024/03/02 22:01:06;;;;;;;6.18;4.40;;;;;;;12.47;51.07;98420.78;4820535;29;20053;-86
2024/03/02 22:03:33;;;;;;;6.10;4.40;;;;;;;12.44;51.37;98418.41;4837113;29;20077;-86
2024/03/02 22:05:59;;;;;;;6.57;4.85;;;;;;;12.42;51.54;98416.84;4816113;29;20058;-86
2024/03/02 22:08:27;;;;;;;6.72;4.25;;;;;;;12.37;51.52;98412.81;4834007;29;20067;-86
2024/03/02 22:10:56;;;;;;;7.30;4.90;;;;;;;12.33;51.62;98414.03;4821827;29;20500;-86
2024/03/02 22:13:23;;;;;;;7.38;5.18;;;;;;;12.33;51.69;98403.50;4828667;29;20066;-86
2024/03/02 22:15:50;;;;;;;6.97;4.38;;;;;;;12.32;51.78;98401.81;4837890;29;20054;-86
2024/03/02 22:18:16;;;;;;;7.50;4.63;;;;;;;12.31;51.86;98386.13;4821297;29;20114;-87
2024/03/02 22:20:43;;;;;;;7.78;5.00;;;;;;;12.32;51.89;98385.16;4809870;29;20059;-86
2024/03/02 22:23:09;;;;;;;7.47;5.22;;;;;;;12.32;51.99;98378.06;4817843;29;20057;-86
2024/03/02 22:25:37;;;;;;;6.10;4.53;;;;;;;12.32;52.08;98382.50;4826539;29;20153;-86
2024/03/02 22:28:03;;;;;;;8.63;5.15;;;;;;;12.34;51.90;98380.59;4826054;29;20070;-86
2024/03/02 22:30:30;;;;;;;5.50;4.22;;;;;;;12.34;51.92;98380.59;4833000;29;20068;-86
2024/03/02 22:32:57;;;;;;;8.65;5.22;;;;;;;12.33;51.92;98371.81;4813672;29;20089;-86
2024/03/02 22:35:24;;;;;;;6.63;4.85;;;;;;;12.34;51.99;98377.94;4812505;29;20158;-86
2024/03/02 22:37:51;;;;;;;7.57;4.60;;;;;;;12.34;52.05;98372.66;4836398;29;20145;-86
2024/03/02 22:40:18;;;;;;;9.63;5.50;;;;;;;12.33;52.17;98369.19;4819822;29;20076;-86
2024/03/02 22:42:45;;;;;;;8.77;5.22;;;;;;;12.34;52.16;98364.75;4818763;29;20506;-86
2024/03/02 22:45:11;;;;;;;6.85;4.80;;;;;;;12.33;52.17;98373.63;4836734;29;20070;-86
2024/03/02 22:47:38;;;;;;;7.45;5.30;;;;;;;12.33;52.29;98379.75;4818465;29;20145;-86
2024/03/02 22:50:07;;;;;;;7.95;5.15;;;;;;;12.32;52.42;98383.34;4834342;29;20422;-86
2024/03/02 22:52:35;;;;;;;10.75;6.35;;;;;;;12.31;52.47;98381.69;4839221;29;20058;-86
2024/03/02 22:55:02;;;;;;;9.45;5.97;;;;;;;12.32;52.43;98383.34;4830737;29;20149;-86
2024/03/02 22:57:29;;;;;;;8.88;5.50;;;;;;;12.33;52.55;98382.38;4835690;29;20062;-86
2024/03/02 22:59:56;;;;;;;7.63;5.35;;;;;;;12.35;52.59;98384.88;4832725;29;20584;-86
2024/03/02 23:02:23;;;;;;;8.35;5.70;;;;;;;12.37;52.81;98390.84;4824297;29;20498;-86
2024/03/02 23:04:51;;;;;;;7.78;5.80;;;;;;;12.38;52.68;98388.09;4840384;29;20521;-86
2024/03/02 23:07:21;;;;;;;10.77;6.05;;;;;;;12.38;52.69;98393.38;4839878;29;20738;-87
2024/03/02 23:09:48;;;;;;;8.25;5.88;;;;;;;12.41;52.63;98386.16;4835646;29;20058;-86
2024/03/02 23:12:15;;;;;;;9.50;6.35;;;;;;;12.42;52.47;98387.84;4829452;29;20127;-86
2024/03/02 23:14:42;;;;;;;8.55;5.53;;;;;;;12.41;52.71;98388.81;4827632;29;20070;-86
2024/03/02 23:17:09;;;;;;;8.35;6.25;;;;;;;12.41;52.78;98389.63;4836030;29;20148;-86
2024/03/02 23:19:36;;;;;;;9.25;6.15;;;;;;;12.39;52.89;98402.13;4811755;29;20058;-86
2024/03/02 23:22:04;;;;;;;9.30;6.15;;;;;;;12.38;52.80;98411.84;4822756;29;20166;-86
2024/03/02 23:24:32;;;;;;;10.90;6.60;;;;;;;12.37;52.78;98394.34;4832707;29;20062;-86
2024/03/02 23:26:58;;;;;;;8.07;5.95;;;;;;;12.37;52.79;98399.63;4816690;29;20090;-86
2024/03/02 23:29:25;;;;;;;11.90;6.53;;;;;;;12.39;53.12;98396.84;4831787;29;20518;-86
2024/03/02 23:31:51;;;;;;;9.48;6.13;;;;;;;12.38;52.98;98393.38;4808918;29;20059;-86
2024/03/02 23:34:18;;;;;;;7.47;5.90;;;;;;;12.40;53.12;98393.25;4832528;29;20142;-86
2024/03/02 23:36:44;;;;;;;9.15;5.97;;;;;;;12.43;53.36;98389.50;4826514;29;20073;-86
2024/03/02 23:39:45;;;;;;;10.35;6.38;;;;;;;12.43;53.17;98387.69;4819363;29;20065;-86
2024/03/02 23:41:57;;;;;;;8.68;6.10;;;;;;;12.46;53.31;98391.88;4831690;29;20066;-86
2024/03/02 23:44:24;;;;;;;9.02;6.32;;;;;;;12.47;53.24;98381.19;4839011;29;20054;-86
2024/03/02 23:46:51;;;;;;;10.93;6.90;;;;;;;12.47;53.03;98385.63;4832598;29;20062;-86
2024/03/02 23:49:17;;;;;;;13.23;6.78;;;;;;;12.47;53.28;98380.34;4831921;29;20141;-86
2024/03/02 23:51:44;;;;;;;10.45;7.00;;;;;;;12.46;52.96;98381.31;4818244;29;20138;-86
2024/03/02 23:54:11;;;;;;;8.75;6.90;;;;;;;12.44;53.21;98386.72;4835388;29;20061;-86
2024/03/02 23:56:37;;;;;;;9.23;6.78;;;;;;;12.42;53.15;98379.91;4827063;29;20803;-86
2024/03/02 23:59:04;;;;;;;9.88;6.45;;;;;;;12.41;53.23;98375.63;4830540;29;20141;-86
